KB7ZHE Weather Reports


Display with metric or nautical units.
time (UTC)temp
F
wind
direction
speed
MPH
gust
MPH
rain 1hr
in
rain 24hr
in
rain mn
in
humidity
%
barometer
mb
20200926015859 90 282 0.0 0.0 0.00 0.00 0.00 21 1010.4
20200926014858 91 282 0.0 0.0 0.00 0.00 0.00 21 1010.4
20200926013859 92 282 0.0 0.0 0.00 0.00 0.00 20 1010.4
20200926012858 93 282 0.0 0.0 0.00 0.00 0.00 20 1010.4
20200926011858 93 282 0.0 0.0 0.00 0.00 0.00 20 1010.3
20200926010858 94 282 0.0 0.0 0.00 0.00 0.00 19 1010.3
20200926005857 95 281 0.0 0.0 0.00 0.00 0.00 19 1010.4
20200926004858 95 286 2.0 0.0 0.00 0.00 0.00 19 1010.2
20200926003859 96 286 0.0 0.0 0.00 0.00 0.00 19 1010.3
20200926002858 96 286 2.0 0.0 0.00 0.00 0.00 18 1010.3
20200926001857 97 286 0.0 0.0 0.00 0.00 0.00 18 1010.4
20200926000901 98 329 0.0 0.0 0.00 0.00 0.00 18 1010.4
20200925235857 98 258 1.0 0.0 0.00 0.00 0.00 18 1010.4
20200925234857 98 258 2.0 0.0 0.00 0.00 0.00 17 1010.4
20200925233857 99 258 0.0 0.0 0.00 0.00 0.00 17 1010.5
20200925232901 99 258 2.0 0.0 0.00 0.00 0.00 17 1010.4
20200925231856 100 263 2.0 0.0 0.00 0.00 0.00 17 1010.5
20200925230859 100 252 0.0 0.0 0.00 0.00 0.00 17 1010.5
20200925225859 100 325 1.0 0.0 0.00 0.00 0.00 17 1010.6
20200925224858 101 237 3.0 0.0 0.00 0.00 0.00 16 1010.6
20200925223859 101 279 1.0 0.0 0.00 0.00 0.00 16 1010.7
20200925222857 101 296 0.0 0.0 0.00 0.00 0.00 16 1010.7
20200925221856 102 258 10.0 0.0 0.00 0.00 0.00 16 1010.8
20200925220857 102 281 3.0 0.0 0.00 0.00 0.00 16 1010.8
20200925215857 103 262 3.0 0.0 0.00 0.00 0.00 16 1010.9
20200925214856 103 360 0.0 0.0 0.00 0.00 0.00 16 1011.0
20200925213857 103 348 4.0 0.0 0.00 0.00 0.00 16 1011.1
20200925212855 103 275 3.0 0.0 0.00 0.00 0.00 15 1011.3
20200925211859 103 263 2.0 0.0 0.00 0.00 0.00 16 1011.4
20200925210856 103 338 0.0 0.0 0.00 0.00 0.00 15 1011.6
20200925205855 102 248 3.0 0.0 0.00 0.00 0.00 16 1011.5
20200925204859 103 281 2.0 0.0 0.00 0.00 0.00 16 1011.7
20200925203856 102 261 0.0 0.0 0.00 0.00 0.00 16 1011.8
20200925202859 104 250 3.0 0.0 0.00 0.00 0.00 15 1012.0
20200925201855 103 206 3.0 0.0 0.00 0.00 0.00 16 1012.3
20200925201018 102 340 0.0 0.0 0.00 0.00 0.00 16 1012.5
20200925195855 102 333 0.0 0.0 0.00 0.00 0.00 16 1012.7
20200925194855 101 333 1.0 0.0 0.00 0.00 0.00 16 1012.9
20200925193855 102 331 0.0 0.0 0.00 0.00 0.00 16 1013.0
20200925192855 101 290 0.0 0.0 0.00 0.00 0.00 17 1013.1
20200925191858 101 233 2.0 0.0 0.00 0.00 0.00 17 1013.3
20200925190855 102 259 0.0 0.0 0.00 0.00 0.00 17 1013.4
20200925185854 101 227 0.0 0.0 0.00 0.00 0.00 17 1013.5
20200925184854 101 229 5.0 0.0 0.00 0.00 0.00 17 1013.6
20200925183854 100 227 4.0 0.0 0.00 0.00 0.00 17 1013.6
20200925182855 99 229 0.0 0.0 0.00 0.00 0.00 17 1013.7
20200925181855 100 231 0.0 0.0 0.00 0.00 0.00 17 1013.8
20200925180855 99 234 4.0 0.0 0.00 0.00 0.00 17 1013.8
20200925175858 98 195 3.0 0.0 0.00 0.00 0.00 18 1014.0
20200925174854 96 225 3.0 0.0 0.00 0.00 0.00 18 1014.0
20200925173855 97 173 3.0 0.0 0.00 0.00 0.00 18 1014.1
20200925172855 95 173 2.0 0.0 0.00 0.00 0.00 19 1014.2
20200925171854 95 159 2.0 0.0 0.00 0.00 0.00 19 1014.2
20200925170859 93 156 3.0 0.0 0.00 0.00 0.00 19 1014.2
20200925165857 93 189 4.0 0.0 0.00 0.00 0.00 20 1014.1
20200925164854 92 155 3.0 0.0 0.00 0.00 0.00 20 1014.1
20200925163854 92 184 3.0 0.0 0.00 0.00 0.00 20 1014.1
20200925162854 91 202 5.0 0.0 0.00 0.00 0.00 21 1014.0
20200925161854 91 171 3.0 0.0 0.00 0.00 0.00 21 1013.9
20200925160854 90 175 3.0 0.0 0.00 0.00 0.00 22 1013.9
20200925155855 89 176 3.0 0.0 0.00 0.00 0.00 22 1013.8
20200925154853 89 177 3.0 0.0 0.00 0.00 0.00 22 1013.7
20200925153853 88 173 3.0 0.0 0.00 0.00 0.00 23 1013.6
20200925152853 87 146 3.0 0.0 0.00 0.00 0.00 23 1013.5
20200925151858 87 186 0.0 0.0 0.00 0.00 0.00 24 1013.4
20200925150853 86 282 0.0 0.0 0.00 0.00 0.00 25 1013.4
20200925145856 85 282 0.0 0.0 0.00 0.00 0.00 26 1013.3
20200925144853 83 283 0.0 0.0 0.00 0.00 0.00 27 1013.2
20200925143853 81 283 0.0 0.0 0.00 0.00 0.00 28 1013.2
20200925142853 79 284 0.0 0.0 0.00 0.00 0.00 29 1013.0
20200925141853 78 282 0.0 0.0 0.00 0.00 0.00 30 1012.9
20200925140855 77 278 0.0 0.0 0.00 0.00 0.00 30 1012.8
20200925135853 76 277 0.0 0.0 0.00 0.00 0.00 30 1012.6
20200925134854 75 277 0.0 0.0 0.00 0.00 0.00 31 1012.5
20200925133852 73 277 0.0 0.0 0.00 0.00 0.00 33 1012.4
20200925132853 73 277 0.0 0.0 0.00 0.00 0.00 33 1012.2
20200925131853 73 277 0.0 0.0 0.00 0.00 0.00 33 1012.1
20200925032841 87 277 0.0 0.0 0.00 0.00 0.00 24 1009.4
20200925031843 86 277 0.0 0.0 0.00 0.00 0.00 24 1009.3
20200925030844 88 277 0.0 0.0 0.00 0.00 0.00 23 1009.2
20200925025841 88 277 0.0 0.0 0.00 0.00 0.00 23 1009.1
20200925024841 88 277 0.0 0.0 0.00 0.00 0.00 23 1009.0
20200925023841 88 277 0.0 0.0 0.00 0.00 0.00 23 1008.9
20200925022843 89 277 0.0 0.0 0.00 0.00 0.00 23 1008.9
20200925021841 89 276 0.0 0.0 0.00 0.00 0.00 22 1008.7
20200925020841 90 276 0.0 0.0 0.00 0.00 0.00 22 1008.7